sensor_id;sensor_type;location;lat;lon;timestamp;pressure;altitude;pressure_sealevel;temperature;humidity
46023;BME280;31756;47.936;16.224;2022-11-12T00:01:01;100266.19;;;4.34;100.00
46023;BME280;31756;47.936;16.224;2022-11-12T00:03:45;100287.00;;;4.49;100.00
46023;BME280;31756;47.936;16.224;2022-11-12T00:06:29;100278.84;;;4.59;100.00
46023;BME280;31756;47.936;16.224;2022-11-12T00:09:14;100275.72;;;4.66;100.00
46023;BME280;31756;47.936;16.224;2022-11-12T00:11:58;100254.47;;;4.64;100.00
46023;BME280;31756;47.936;16.224;2022-11-12T00:14:42;100270.06;;;4.76;100.00
46023;BME280;31756;47.936;16.224;2022-11-12T00:17:26;100249.28;;;4.61;100.00
46023;BME280;31756;47.936;16.224;2022-11-12T00:20:10;100270.72;;;4.69;100.00
46023;BME280;31756;47.936;16.224;2022-11-12T00:22:54;100269.69;;;4.64;100.00
46023;BME280;31756;47.936;16.224;2022-11-12T00:25:39;100252.78;;;4.65;100.00
46023;BME280;31756;47.936;16.224;2022-11-12T00:28:23;100269.41;;;4.82;100.00
46023;BME280;31756;47.936;16.224;2022-11-12T00:31:08;100253.59;;;4.64;100.00
46023;BME280;31756;47.936;16.224;2022-11-12T00:33:53;100274.69;;;4.61;100.00
46023;BME280;31756;47.936;16.224;2022-11-12T00:36:38;100248.53;;;4.37;100.00
46023;BME280;31756;47.936;16.224;2022-11-12T00:39:21;100265.59;;;4.41;100.00
46023;BME280;31756;47.936;16.224;2022-11-12T00:42:05;100266.44;;;4.41;100.00
46023;BME280;31756;47.936;16.224;2022-11-12T00:44:49;100250.38;;;4.42;100.00
46023;BME280;31756;47.936;16.224;2022-11-12T00:47:33;100259.66;;;4.40;100.00
46023;BME280;31756;47.936;16.224;2022-11-12T00:50:17;100253.72;;;4.40;100.00
46023;BME280;31756;47.936;16.224;2022-11-12T00:53:01;100230.66;;;4.34;100.00
46023;BME280;31756;47.936;16.224;2022-11-12T00:55:46;100241.16;;;4.44;100.00
46023;BME280;31756;47.936;16.224;2022-11-12T00:58:31;100245.44;;;4.45;100.00
46023;BME280;31756;47.936;16.224;2022-11-12T01:01:16;100247.91;;;4.44;100.00
46023;BME280;31756;47.936;16.224;2022-11-12T01:04:00;100239.34;;;4.40;100.00
46023;BME280;31756;47.936;16.224;2022-11-12T01:06:44;100227.09;;;4.29;100.00
46023;BME280;31756;47.936;16.224;2022-11-12T01:09:28;100237.31;;;4.30;100.00
46023;BME280;31756;47.936;16.224;2022-11-12T01:12:13;100218.88;;;4.09;100.00
46023;BME280;31756;47.936;16.224;2022-11-12T01:14:57;100223.19;;;4.11;100.00
46023;BME280;31756;47.936;16.224;2022-11-12T01:17:41;100241.53;;;4.30;100.00
46023;BME280;31756;47.936;16.224;2022-11-12T01:20:25;100240.06;;;4.36;100.00
46023;BME280;31756;47.936;16.224;2022-11-12T01:23:09;100214.56;;;4.33;100.00
46023;BME280;31756;47.936;16.224;2022-11-12T01:25:53;100232.75;;;4.45;100.00
46023;BME280;31756;47.936;16.224;2022-11-12T01:28:38;100205.25;;;4.34;100.00
46023;BME280;31756;47.936;16.224;2022-11-12T01:31:31;100203.56;;;4.33;100.00
46023;BME280;31756;47.936;16.224;2022-11-12T01:34:15;100216.66;;;4.46;100.00
46023;BME280;31756;47.936;16.224;2022-11-12T01:36:59;100195.25;;;4.38;100.00
46023;BME280;31756;47.936;16.224;2022-11-12T01:39:43;100211.50;;;4.43;100.00
46023;BME280;31756;47.936;16.224;2022-11-12T01:42:31;100215.53;;;4.37;100.00
46023;BME280;31756;47.936;16.224;2022-11-12T01:45:16;100204.97;;;4.25;100.00
46023;BME280;31756;47.936;16.224;2022-11-12T01:48:00;100180.44;;;4.24;100.00
46023;BME280;31756;47.936;16.224;2022-11-12T01:50:45;100200.03;;;4.29;100.00
46023;BME280;31756;47.936;16.224;2022-11-12T01:53:35;100195.09;;;4.32;100.00
46023;BME280;31756;47.936;16.224;2022-11-12T01:56:22;100194.97;;;4.29;100.00
46023;BME280;31756;47.936;16.224;2022-11-12T01:59:37;100187.78;;;4.16;100.00
46023;BME280;31756;47.936;16.224;2022-11-12T02:02:19;100175.34;;;3.97;100.00
46023;BME280;31756;47.936;16.224;2022-11-12T02:05:06;100193.00;;;3.94;100.00
46023;BME280;31756;47.936;16.224;2022-11-12T02:07:52;100206.28;;;3.87;100.00
46023;BME280;31756;47.936;16.224;2022-11-12T02:10:38;100185.28;;;3.65;100.00
46023;BME280;31756;47.936;16.224;2022-11-12T02:13:23;100210.06;;;3.73;100.00
46023;BME280;31756;47.936;16.224;2022-11-12T02:19:16;100210.22;;;3.53;100.00
46023;BME280;31756;47.936;16.224;2022-11-12T02:22:00;100196.50;;;3.47;100.00
46023;BME280;31756;47.936;16.224;2022-11-12T02:24:44;100186.19;;;3.42;100.00
46023;BME280;31756;47.936;16.224;2022-11-12T02:27:28;100196.19;;;3.38;100.00
46023;BME280;31756;47.936;16.224;2022-11-12T02:30:13;100219.63;;;3.32;100.00
46023;BME280;31756;47.936;16.224;2022-11-12T02:32:57;100205.19;;;3.30;100.00
46023;BME280;31756;47.936;16.224;2022-11-12T02:35:42;100204.31;;;3.29;100.00
46023;BME280;31756;47.936;16.224;2022-11-12T02:38:26;100208.47;;;3.27;100.00
46023;BME280;31756;47.936;16.224;2022-11-12T02:41:10;100187.88;;;3.42;100.00
46023;BME280;31756;47.936;16.224;2022-11-12T02:43:54;100185.88;;;3.33;100.00
46023;BME280;31756;47.936;16.224;2022-11-12T02:46:39;100211.28;;;3.35;100.00
46023;BME280;31756;47.936;16.224;2022-11-12T02:49:24;100210.19;;;3.28;100.00
46023;BME280;31756;47.936;16.224;2022-11-12T02:52:08;100206.34;;;3.14;100.00
46023;BME280;31756;47.936;16.224;2022-11-12T02:54:52;100214.59;;;3.10;100.00
46023;BME280;31756;47.936;16.224;2022-11-12T02:57:37;100182.53;;;2.87;100.00
46023;BME280;31756;47.936;16.224;2022-11-12T03:00:21;100171.47;;;2.85;100.00
46023;BME280;31756;47.936;16.224;2022-11-12T03:03:05;100211.78;;;3.02;100.00
46023;BME280;31756;47.936;16.224;2022-11-12T03:05:59;100210.19;;;3.04;100.00
46023;BME280;31756;47.936;16.224;2022-11-12T03:08:44;100187.84;;;2.94;100.00
46023;BME280;31756;47.936;16.224;2022-11-12T03:11:28;100206.19;;;3.11;100.00
46023;BME280;31756;47.936;16.224;2022-11-12T03:14:12;100193.25;;;3.03;100.00
46023;BME280;31756;47.936;16.224;2022-11-12T03:16:56;100219.28;;;3.23;100.00
46023;BME280;31756;47.936;16.224;2022-11-12T03:19:40;100191.97;;;3.14;100.00
46023;BME280;31756;47.936;16.224;2022-11-12T03:22:25;100209.56;;;3.34;100.00
46023;BME280;31756;47.936;16.224;2022-11-12T03:25:09;100209.50;;;3.32;100.00
46023;BME280;31756;47.936;16.224;2022-11-12T03:28:01;100197.44;;;3.25;100.00
46023;BME280;31756;47.936;16.224;2022-11-12T03:30:46;100189.03;;;3.26;100.00
46023;BME280;31756;47.936;16.224;2022-11-12T03:33:31;100220.13;;;3.46;100.00
46023;BME280;31756;47.936;16.224;2022-11-12T03:36:15;100186.91;;;3.38;100.00
46023;BME280;31756;47.936;16.224;2022-11-12T03:39:00;100205.22;;;3.55;100.00
46023;BME280;31756;47.936;16.224;2022-11-12T03:41:44;100202.78;;;3.58;100.00
46023;BME280;31756;47.936;16.224;2022-11-12T03:44:27;100196.97;;;3.60;100.00
46023;BME280;31756;47.936;16.224;2022-11-12T03:47:11;100178.06;;;3.52;100.00
46023;BME280;31756;47.936;16.224;2022-11-12T03:49:56;100199.91;;;3.73;100.00
46023;BME280;31756;47.936;16.224;2022-11-12T03:52:45;100191.38;;;3.71;100.00
46023;BME280;31756;47.936;16.224;2022-11-12T03:55:29;100205.00;;;3.73;100.00
46023;BME280;31756;47.936;16.224;2022-11-12T03:58:13;100212.59;;;3.73;100.00
46023;BME280;31756;47.936;16.224;2022-11-12T04:00:57;100217.66;;;3.73;100.00
46023;BME280;31756;47.936;16.224;2022-11-12T04:03:41;100195.66;;;3.72;100.00
46023;BME280;31756;47.936;16.224;2022-11-12T04:06:26;100203.09;;;3.67;100.00
46023;BME280;31756;47.936;16.224;2022-11-12T04:09:29;100208.53;;;3.78;100.00
46023;BME280;31756;47.936;16.224;2022-11-12T04:12:13;100191.91;;;3.86;100.00
46023;BME280;31756;47.936;16.224;2022-11-12T04:15:19;100151.91;;;3.53;100.00
46023;BME280;31756;47.936;16.224;2022-11-12T04:18:03;100192.81;;;3.62;100.00
46023;BME280;31756;47.936;16.224;2022-11-12T04:21:08;100191.03;;;3.60;100.00
46023;BME280;31756;47.936;16.224;2022-11-12T04:24:14;100188.09;;;3.48;100.00
46023;BME280;31756;47.936;16.224;2022-11-12T04:27:23;100190.16;;;3.34;100.00
46023;BME280;31756;47.936;16.224;2022-11-12T04:30:08;100206.78;;;3.28;100.00
46023;BME280;31756;47.936;16.224;2022-11-12T04:33:02;100173.84;;;3.04;100.00
46023;BME280;31756;47.936;16.224;2022-11-12T04:35:46;100184.84;;;3.28;100.00
46023;BME280;31756;47.936;16.224;2022-11-12T04:38:30;100183.41;;;3.11;100.00
46023;BME280;31756;47.936;16.224;2022-11-12T04:41:14;100188.72;;;3.18;100.00
46023;BME280;31756;47.936;16.224;2022-11-12T04:44:17;100185.88;;;3.33;100.00
46023;BME280;31756;47.936;16.224;2022-11-12T04:47:20;100206.19;;;3.11;100.00
46023;BME280;31756;47.936;16.224;2022-11-12T04:50:07;100195.09;;;3.07;100.00
46023;BME280;31756;47.936;16.224;2022-11-12T04:52:51;100217.38;;;2.94;100.00
46023;BME280;31756;47.936;16.224;2022-11-12T04:55:35;100202.25;;;2.73;100.00
46023;BME280;31756;47.936;16.224;2022-11-12T04:58:19;100210.38;;;2.87;100.00
46023;BME280;31756;47.936;16.224;2022-11-12T05:01:04;100204.78;;;2.73;100.00
46023;BME280;31756;47.936;16.224;2022-11-12T05:03:48;100216.31;;;2.65;100.00
46023;BME280;31756;47.936;16.224;2022-11-12T05:06:32;100210.03;;;2.55;100.00
46023;BME280;31756;47.936;16.224;2022-11-12T05:09:34;100201.09;;;2.43;100.00
46023;BME280;31756;47.936;16.224;2022-11-12T05:12:19;100212.16;;;2.45;100.00
46023;BME280;31756;47.936;16.224;2022-11-12T05:15:04;100216.94;;;2.37;100.00
46023;BME280;31756;47.936;16.224;2022-11-12T05:17:48;100202.78;;;2.21;100.00
46023;BME280;31756;47.936;16.224;2022-11-12T05:20:34;100228.66;;;2.35;100.00
46023;BME280;31756;47.936;16.224;2022-11-12T05:23:18;100232.38;;;2.22;100.00
46023;BME280;31756;47.936;16.224;2022-11-12T05:26:02;100235.56;;;2.18;100.00
46023;BME280;31756;47.936;16.224;2022-11-12T05:28:47;100232.94;;;2.15;100.00
46023;BME280;31756;47.936;16.224;2022-11-12T05:31:31;100248.16;;;2.17;100.00
46023;BME280;31756;47.936;16.224;2022-11-12T05:34:16;100241.88;;;2.07;100.00
46023;BME280;31756;47.936;16.224;2022-11-12T05:37:01;100245.94;;;2.04;100.00
46023;BME280;31756;47.936;16.224;2022-11-12T05:39:47;100245.81;;;2.01;100.00
46023;BME280;31756;47.936;16.224;2022-11-12T05:42:31;100249.00;;;1.97;100.00
46023;BME280;31756;47.936;16.224;2022-11-12T05:45:15;100247.91;;;1.90;100.00
46023;BME280;31756;47.936;16.224;2022-11-12T05:47:59;100226.16;;;1.74;100.00
46023;BME280;31756;47.936;16.224;2022-11-12T05:50:44;100215.81;;;1.68;100.00
46023;BME280;31756;47.936;16.224;2022-11-12T05:53:28;100249.31;;;1.83;100.00
46023;BME280;31756;47.936;16.224;2022-11-12T05:56:13;100218.16;;;1.64;100.00
46023;BME280;31756;47.936;16.224;2022-11-12T05:58:57;100246.53;;;1.77;100.00
46023;BME280;31756;47.936;16.224;2022-11-12T06:01:41;100242.34;;;1.78;100.00
46023;BME280;31756;47.936;16.224;2022-11-12T06:04:29;100250.94;;;1.81;100.00
46023;BME280;31756;47.936;16.224;2022-11-12T06:07:13;100256.91;;;1.83;100.00
46023;BME280;31756;47.936;16.224;2022-11-12T06:09:57;100255.34;;;1.87;100.00
46023;BME280;31756;47.936;16.224;2022-11-12T06:12:41;100258.34;;;1.98;100.00
46023;BME280;31756;47.936;16.224;2022-11-12T06:15:25;100261.25;;;2.07;100.00
46023;BME280;31756;47.936;16.224;2022-11-12T06:18:12;100264.88;;;2.13;100.00
46023;BME280;31756;47.936;16.224;2022-11-12T06:21:04;100268.66;;;2.23;100.00
46023;BME280;31756;47.936;16.224;2022-11-12T06:24:08;100263.97;;;2.32;100.00
46023;BME280;31756;47.936;16.224;2022-11-12T06:26:52;100270.47;;;2.48;100.00
46023;BME280;31756;47.936;16.224;2022-11-12T06:29:36;100276.84;;;2.59;100.00
46023;BME280;31756;47.936;16.224;2022-11-12T06:32:24;100267.06;;;2.68;100.00
46023;BME280;31756;47.936;16.224;2022-11-12T06:35:08;100271.56;;;2.75;100.00
46023;BME280;31756;47.936;16.224;2022-11-12T06:37:52;100261.47;;;2.99;100.00
46023;BME280;31756;47.936;16.224;2022-11-12T06:40:38;100250.19;;;3.13;100.00
46023;BME280;31756;47.936;16.224;2022-11-12T06:43:23;100270.81;;;3.46;100.00
46023;BME280;31756;47.936;16.224;2022-11-12T06:46:11;100270.38;;;3.57;100.00
46023;BME280;31756;47.936;16.224;2022-11-12T06:48:56;100270.59;;;3.63;100.00
46023;BME280;31756;47.936;16.224;2022-11-12T06:51:40;100260.88;;;3.76;100.00
46023;BME280;31756;47.936;16.224;2022-11-12T06:54:24;100258.97;;;3.94;100.00
46023;BME280;31756;47.936;16.224;2022-11-12T06:57:09;100250.84;;;4.04;100.00
46023;BME280;31756;47.936;16.224;2022-11-12T06:59:54;100255.75;;;4.25;100.00
46023;BME280;31756;47.936;16.224;2022-11-12T07:02:38;100251.91;;;4.37;100.00
46023;BME280;31756;47.936;16.224;2022-11-12T07:05:22;100261.66;;;4.50;100.00
46023;BME280;31756;47.936;16.224;2022-11-12T07:08:06;100241.47;;;4.55;100.00
46023;BME280;31756;47.936;16.224;2022-11-12T07:10:55;100229.84;;;4.62;100.00
46023;BME280;31756;47.936;16.224;2022-11-12T07:13:41;100254.38;;;4.89;100.00
46023;BME280;31756;47.936;16.224;2022-11-12T07:16:27;100245.41;;;5.00;100.00
46023;BME280;31756;47.936;16.224;2022-11-12T07:19:12;100222.81;;;5.11;100.00
46023;BME280;31756;47.936;16.224;2022-11-12T07:21:56;100248.56;;;5.53;100.00
46023;BME280;31756;47.936;16.224;2022-11-12T07:24:40;100221.00;;;5.68;100.00
46023;BME280;31756;47.936;16.224;2022-11-12T07:27:28;100227.84;;;6.02;100.00
46023;BME280;31756;47.936;16.224;2022-11-12T07:30:13;100230.06;;;6.24;100.00
46023;BME280;31756;47.936;16.224;2022-11-12T07:32:57;100229.63;;;6.40;100.00
46023;BME280;31756;47.936;16.224;2022-11-12T07:35:41;100231.59;;;6.54;100.00
46023;BME280;31756;47.936;16.224;2022-11-12T07:38:27;100211.22;;;6.54;100.00
46023;BME280;31756;47.936;16.224;2022-11-12T07:41:15;100236.34;;;6.74;100.00
46023;BME280;31756;47.936;16.224;2022-11-12T07:43:59;100235.69;;;6.83;100.00
46023;BME280;31756;47.936;16.224;2022-11-12T07:46:44;100233.41;;;6.95;100.00
46023;BME280;31756;47.936;16.224;2022-11-12T07:49:28;100235.34;;;7.07;100.00
46023;BME280;31756;47.936;16.224;2022-11-12T07:52:12;100233.84;;;7.18;100.00
46023;BME280;31756;47.936;16.224;2022-11-12T07:54:56;100231.63;;;7.34;100.00
46023;BME280;31756;47.936;16.224;2022-11-12T07:57:40;100232.91;;;7.56;100.00
46023;BME280;31756;47.936;16.224;2022-11-12T08:00:24;100236.72;;;7.78;100.00
46023;BME280;31756;47.936;16.224;2022-11-12T08:03:08;100242.31;;;8.07;100.00
46023;BME280;31756;47.936;16.224;2022-11-12T08:05:52;100236.69;;;8.26;100.00
46023;BME280;31756;47.936;16.224;2022-11-12T08:08:36;100239.69;;;8.53;100.00
46023;BME280;31756;47.936;16.224;2022-11-12T08:11:21;100244.34;;;8.80;100.00
46023;BME280;31756;47.936;16.224;2022-11-12T08:14:05;100238.63;;;8.98;100.00
46023;BME280;31756;47.936;16.224;2022-11-12T08:16:49;100223.34;;;9.04;100.00
46023;BME280;31756;47.936;16.224;2022-11-12T08:19:33;100238.13;;;9.25;100.00
46023;BME280;31756;47.936;16.224;2022-11-12T08:22:17;100236.53;;;9.33;100.00
46023;BME280;31756;47.936;16.224;2022-11-12T08:25:01;100238.31;;;9.40;100.00
46023;BME280;31756;47.936;16.224;2022-11-12T08:27:45;100225.47;;;9.37;100.00
46023;BME280;31756;47.936;16.224;2022-11-12T08:30:29;100247.88;;;9.59;100.00
46023;BME280;31756;47.936;16.224;2022-11-12T08:33:13;100251.34;;;9.61;100.00
46023;BME280;31756;47.936;16.224;2022-11-12T08:35:58;100239.31;;;9.55;100.00
46023;BME280;31756;47.936;16.224;2022-11-12T08:38:45;100265.09;;;9.72;100.00
46023;BME280;31756;47.936;16.224;2022-11-12T08:41:29;100243.78;;;9.72;100.00
46023;BME280;31756;47.936;16.224;2022-11-12T08:44:13;100252.41;;;9.81;100.00
46023;BME280;31756;47.936;16.224;2022-11-12T08:46:58;100233.63;;;9.81;100.00
46023;BME280;31756;47.936;16.224;2022-11-12T08:49:42;100249.06;;;9.90;100.00
46023;BME280;31756;47.936;16.224;2022-11-12T08:52:26;100235.41;;;9.88;100.00
46023;BME280;31756;47.936;16.224;2022-11-12T08:55:10;100253.53;;;10.10;100.00
46023;BME280;31756;47.936;16.224;2022-11-12T08:57:54;100260.53;;;10.22;100.00
46023;BME280;31756;47.936;16.224;2022-11-12T09:00:43;100263.13;;;10.27;100.00
46023;BME280;31756;47.936;16.224;2022-11-12T09:03:27;100274.44;;;10.53;100.00
46023;BME280;31756;47.936;16.224;2022-11-12T09:06:11;100249.63;;;10.50;100.00
46023;BME280;31756;47.936;16.224;2022-11-12T09:08:56;100278.03;;;10.79;100.00
46023;BME280;31756;47.936;16.224;2022-11-12T09:11:40;100289.34;;;11.07;100.00
46023;BME280;31756;47.936;16.224;2022-11-12T09:14:24;100269.69;;;11.11;100.00
46023;BME280;31756;47.936;16.224;2022-11-12T09:17:09;100286.88;;;11.27;100.00
46023;BME280;31756;47.936;16.224;2022-11-12T09:19:52;100274.03;;;11.30;100.00
46023;BME280;31756;47.936;16.224;2022-11-12T09:22:37;100289.53;;;11.48;100.00
46023;BME280;31756;47.936;16.224;2022-11-12T09:25:21;100285.25;;;11.49;100.00
46023;BME280;31756;47.936;16.224;2022-11-12T09:28:10;100283.59;;;11.66;100.00
46023;BME280;31756;47.936;16.224;2022-11-12T09:30:56;100293.09;;;11.82;100.00
46023;BME280;31756;47.936;16.224;2022-11-12T09:33:40;100299.13;;;11.87;100.00
46023;BME280;31756;47.936;16.224;2022-11-12T09:36:24;100294.84;;;11.87;100.00
46023;BME280;31756;47.936;16.224;2022-11-12T09:39:08;100293.16;;;12.00;100.00
46023;BME280;31756;47.936;16.224;2022-11-12T09:41:52;100288.00;;;12.08;100.00
46023;BME280;31756;47.936;16.224;2022-11-12T09:44:37;100281.16;;;12.14;100.00
46023;BME280;31756;47.936;16.224;2022-11-12T09:47:25;100298.31;;;12.15;100.00
46023;BME280;31756;47.936;16.224;2022-11-12T09:50:29;100288.06;;;12.26;100.00
46023;BME280;31756;47.936;16.224;2022-11-12T09:53:25;100288.88;;;12.19;100.00
46023;BME280;31756;47.936;16.224;2022-11-12T09:56:12;100282.03;;;12.36;100.00
46023;BME280;31756;47.936;16.224;2022-11-12T09:58:57;100290.63;;;12.52;100.00
46023;BME280;31756;47.936;16.224;2022-11-12T10:05:11;100290.59;;;12.67;100.00
46023;BME280;31756;47.936;16.224;2022-11-12T10:14:12;100285.44;;;12.94;100.00
46023;BME280;31756;47.936;16.224;2022-11-12T10:23:42;100250.13;;;13.40;100.00
46023;BME280;31756;47.936;16.224;2022-11-12T10:26:29;100255.97;;;13.68;100.00
46023;BME280;31756;47.936;16.224;2022-11-12T10:29:35;100253.34;;;13.76;100.00
46023;BME280;31756;47.936;16.224;2022-11-12T10:32:23;100231.03;;;13.71;100.00
46023;BME280;31756;47.936;16.224;2022-11-12T10:35:07;100241.22;;;13.96;100.00
46023;BME280;31756;47.936;16.224;2022-11-12T10:38:06;100248.88;;;14.02;100.00
46023;BME280;31756;47.936;16.224;2022-11-12T10:40:55;100245.44;;;14.01;100.00
46023;BME280;31756;47.936;16.224;2022-11-12T10:43:53;100231.75;;;13.95;100.00
46023;BME280;31756;47.936;16.224;2022-11-12T10:46:37;100231.63;;;14.13;100.00
46023;BME280;31756;47.936;16.224;2022-11-12T10:49:23;100219.44;;;14.27;100.00
46023;BME280;31756;47.936;16.224;2022-11-12T10:52:22;100229.66;;;14.44;100.00
46023;BME280;31756;47.936;16.224;2022-11-12T10:55:17;100214.13;;;14.48;100.00
46023;BME280;31756;47.936;16.224;2022-11-12T11:00:59;100219.16;;;14.63;100.00
46023;BME280;31756;47.936;16.224;2022-11-12T11:03:56;100227.81;;;14.58;100.00
46023;BME280;31756;47.936;16.224;2022-11-12T11:06:40;100226.06;;;14.63;100.00
46023;BME280;31756;47.936;16.224;2022-11-12T11:09:25;100214.88;;;14.61;100.00
46023;BME280;31756;47.936;16.224;2022-11-12T11:12:31;100223.22;;;14.87;100.00
46023;BME280;31756;47.936;16.224;2022-11-12T11:15:21;100219.00;;;14.80;100.00
46023;BME280;31756;47.936;16.224;2022-11-12T11:18:10;100217.09;;;14.96;95.27
46023;BME280;31756;47.936;16.224;2022-11-12T11:26:51;100187.81;;;14.95;95.10
46023;BME280;31756;47.936;16.224;2022-11-12T11:36:08;100185.84;;;15.17;94.42
46023;BME280;31756;47.936;16.224;2022-11-12T11:44:53;100190.03;;;15.27;86.17
46023;BME280;31756;47.936;16.224;2022-11-12T11:48:09;100180.59;;;15.23;83.30
46023;BME280;31756;47.936;16.224;2022-11-12T11:51:00;100177.97;;;15.25;77.52
46023;BME280;31756;47.936;16.224;2022-11-12T11:54:07;100167.59;;;15.29;77.03
46023;BME280;31756;47.936;16.224;2022-11-12T11:56:58;100159.88;;;15.25;76.27
46023;BME280;31756;47.936;16.224;2022-11-12T12:00:02;100141.75;;;15.28;74.55
46023;BME280;31756;47.936;16.224;2022-11-12T12:06:03;100157.06;;;15.41;71.83
46023;BME280;31756;47.936;16.224;2022-11-12T12:18:00;100162.22;;;15.43;69.92
46023;BME280;31756;47.936;16.224;2022-11-12T12:20:54;100160.75;;;15.27;69.90
46023;BME280;31756;47.936;16.224;2022-11-12T12:23:49;100164.19;;;15.27;70.23
46023;BME280;31756;47.936;16.224;2022-11-12T12:26:45;100155.50;;;15.31;69.38
46023;BME280;31756;47.936;16.224;2022-11-12T12:29:52;100143.47;;;15.30;70.70
46023;BME280;31756;47.936;16.224;2022-11-12T12:32:44;100145.97;;;15.35;70.25
46023;BME280;31756;47.936;16.224;2022-11-12T12:35:36;100151.94;;;15.40;70.32
46023;BME280;31756;47.936;16.224;2022-11-12T12:38:31;100142.31;;;15.51;69.66
46023;BME280;31756;47.936;16.224;2022-11-12T12:44:12;100121.84;;;15.34;68.71
46023;BME280;31756;47.936;16.224;2022-11-12T12:46:58;100121.94;;;15.30;69.75
46023;BME280;31756;47.936;16.224;2022-11-12T12:49:45;100123.66;;;15.31;70.79
46023;BME280;31756;47.936;16.224;2022-11-12T12:53:00;100131.28;;;15.38;71.26
46023;BME280;31756;47.936;16.224;2022-11-12T12:55:46;100121.16;;;15.23;71.78
46023;BME280;31756;47.936;16.224;2022-11-12T12:58:45;100116.81;;;15.27;72.47
46023;BME280;31756;47.936;16.224;2022-11-12T13:01:31;100126.34;;;15.23;72.70
46023;BME280;31756;47.936;16.224;2022-11-12T13:04:53;100134.91;;;15.25;73.58
46023;BME280;31756;47.936;16.224;2022-11-12T13:07:48;100125.50;;;15.20;73.99
46023;BME280;31756;47.936;16.224;2022-11-12T13:10:45;100130.59;;;15.24;74.16
46023;BME280;31756;47.936;16.224;2022-11-12T13:13:35;100136.56;;;15.29;73.32
46023;BME280;31756;47.936;16.224;2022-11-12T13:33:32;100126.53;;;15.08;77.20
46023;BME280;31756;47.936;16.224;2022-11-12T13:36:22;100136.00;;;15.07;76.78
46023;BME280;31756;47.936;16.224;2022-11-12T13:39:16;100132.66;;;14.99;78.33
46023;BME280;31756;47.936;16.224;2022-11-12T13:42:12;100139.59;;;14.97;79.36
46023;BME280;31756;47.936;16.224;2022-11-12T13:45:18;100133.69;;;14.89;79.47
46023;BME280;31756;47.936;16.224;2022-11-12T13:48:07;100112.28;;;14.78;82.10
46023;BME280;31756;47.936;16.224;2022-11-12T13:50:58;100136.38;;;14.79;83.38
46023;BME280;31756;47.936;16.224;2022-11-12T13:53:45;100136.31;;;14.82;83.43
46023;BME280;31756;47.936;16.224;2022-11-12T13:56:31;100115.81;;;14.70;81.58
46023;BME280;31756;47.936;16.224;2022-11-12T13:59:18;100112.38;;;14.71;82.05
46023;BME280;31756;47.936;16.224;2022-11-12T14:02:08;100123.34;;;14.88;80.31
46023;BME280;31756;47.936;16.224;2022-11-12T14:04:59;100128.59;;;14.82;82.10
46023;BME280;31756;47.936;16.224;2022-11-12T14:07:53;100127.84;;;14.72;83.23
46023;BME280;31756;47.936;16.224;2022-11-12T14:11:08;100118.56;;;14.57;83.66
46023;BME280;31756;47.936;16.224;2022-11-12T14:23:12;100113.00;;;14.10;92.60
46023;BME280;31756;47.936;16.224;2022-11-12T14:25:57;100131.97;;;14.03;91.25
46023;BME280;31756;47.936;16.224;2022-11-12T14:28:41;100122.59;;;13.93;92.45
46023;BME280;31756;47.936;16.224;2022-11-12T14:31:26;100122.75;;;13.78;95.19
46023;BME280;31756;47.936;16.224;2022-11-12T14:34:31;100113.47;;;13.54;99.40
46023;BME280;31756;47.936;16.224;2022-11-12T14:37:35;100109.28;;;13.41;100.00
46023;BME280;31756;47.936;16.224;2022-11-12T14:40:22;100122.22;;;13.28;100.00
46023;BME280;31756;47.936;16.224;2022-11-12T14:46:05;100104.41;;;12.83;100.00
46023;BME280;31756;47.936;16.224;2022-11-12T14:48:58;100123.31;;;12.74;100.00
46023;BME280;31756;47.936;16.224;2022-11-12T14:51:53;100107.94;;;12.53;100.00
46023;BME280;31756;47.936;16.224;2022-11-12T14:54:43;100123.44;;;12.43;100.00
46023;BME280;31756;47.936;16.224;2022-11-12T14:57:30;100105.47;;;12.18;100.00
46023;BME280;31756;47.936;16.224;2022-11-12T15:03:02;100116.63;;;12.02;100.00
46023;BME280;31756;47.936;16.224;2022-11-12T15:05:56;100116.63;;;11.84;100.00
46023;BME280;31756;47.936;16.224;2022-11-12T15:08:41;100122.63;;;11.66;100.00
46023;BME280;31756;47.936;16.224;2022-11-12T15:11:46;100126.88;;;11.51;100.00
46023;BME280;31756;47.936;16.224;2022-11-12T15:14:32;100131.13;;;11.33;100.00
46023;BME280;31756;47.936;16.224;2022-11-12T15:17:29;100133.69;;;11.23;100.00
46023;BME280;31756;47.936;16.224;2022-11-12T15:20:16;100135.31;;;11.04;100.00
46023;BME280;31756;47.936;16.224;2022-11-12T15:23:02;100121.56;;;10.81;100.00
46023;BME280;31756;47.936;16.224;2022-11-12T15:25:57;100123.19;;;10.65;100.00
46023;BME280;31756;47.936;16.224;2022-11-12T15:29:00;100134.22;;;10.49;100.00
46023;BME280;31756;47.936;16.224;2022-11-12T15:31:53;100150.47;;;10.48;100.00
46023;BME280;31756;47.936;16.224;2022-11-12T15:37:24;100139.94;;;10.08;100.00
46023;BME280;31756;47.936;16.224;2022-11-12T15:40:16;100157.84;;;10.05;100.00
46023;BME280;31756;47.936;16.224;2022-11-12T15:43:12;100154.28;;;9.90;100.00
46023;BME280;31756;47.936;16.224;2022-11-12T15:45:57;100156.78;;;9.79;100.00
46023;BME280;31756;47.936;16.224;2022-11-12T15:48:42;100161.78;;;9.67;100.00
46023;BME280;31756;47.936;16.224;2022-11-12T15:51:26;100160.81;;;9.54;100.00
46023;BME280;31756;47.936;16.224;2022-11-12T15:54:11;100164.09;;;9.43;100.00